sensor_id;sensor_type;location;lat;lon;timestamp;temperature;humidity
64062;DHT22;50308;47.438;-1.528;2023-01-29T00:01:10;5.90;77.50
64062;DHT22;50308;47.438;-1.528;2023-01-29T00:03:42;5.90;77.40
64062;DHT22;50308;47.438;-1.528;2023-01-29T00:06:14;5.90;78.20
64062;DHT22;50308;47.438;-1.528;2023-01-29T00:08:43;5.90;77.10
64062;DHT22;50308;47.438;-1.528;2023-01-29T00:11:09;5.90;77.40
64062;DHT22;50308;47.438;-1.528;2023-01-29T00:13:35;5.90;77.00
64062;DHT22;50308;47.438;-1.528;2023-01-29T00:16:00;5.80;77.20
64062;DHT22;50308;47.438;-1.528;2023-01-29T00:18:26;5.80;77.30
64062;DHT22;50308;47.438;-1.528;2023-01-29T00:20:52;5.90;77.40
64062;DHT22;50308;47.438;-1.528;2023-01-29T00:23:18;5.80;77.40
64062;DHT22;50308;47.438;-1.528;2023-01-29T00:25:44;5.80;77.40
64062;DHT22;50308;47.438;-1.528;2023-01-29T00:28:10;5.80;77.50
64062;DHT22;50308;47.438;-1.528;2023-01-29T00:30:35;5.80;77.50
64062;DHT22;50308;47.438;-1.528;2023-01-29T00:33:01;5.80;77.30
64062;DHT22;50308;47.438;-1.528;2023-01-29T00:35:27;5.80;77.50
64062;DHT22;50308;47.438;-1.528;2023-01-29T00:37:56;5.80;77.30
64062;DHT22;50308;47.438;-1.528;2023-01-29T00:40:21;5.70;77.40
64062;DHT22;50308;47.438;-1.528;2023-01-29T00:42:47;5.70;77.60
64062;DHT22;50308;47.438;-1.528;2023-01-29T00:45:31;5.80;77.40
64062;DHT22;50308;47.438;-1.528;2023-01-29T00:47:57;5.80;77.30
64062;DHT22;50308;47.438;-1.528;2023-01-29T00:50:23;5.90;77.30
64062;DHT22;50308;47.438;-1.528;2023-01-29T00:52:48;5.90;77.40
64062;DHT22;50308;47.438;-1.528;2023-01-29T00:55:16;5.80;77.10
64062;DHT22;50308;47.438;-1.528;2023-01-29T00:57:41;5.80;77.30
64062;DHT22;50308;47.438;-1.528;2023-01-29T01:00:08;5.70;77.20
64062;DHT22;50308;47.438;-1.528;2023-01-29T01:02:34;5.80;77.50
64062;DHT22;50308;47.438;-1.528;2023-01-29T01:05:18;5.70;77.20
64062;DHT22;50308;47.438;-1.528;2023-01-29T01:07:45;5.70;77.20
64062;DHT22;50308;47.438;-1.528;2023-01-29T01:10:14;5.60;77.30
64062;DHT22;50308;47.438;-1.528;2023-01-29T01:12:53;5.60;77.60
64062;DHT22;50308;47.438;-1.528;2023-01-29T01:15:20;5.60;77.50
64062;DHT22;50308;47.438;-1.528;2023-01-29T01:17:46;5.60;77.40
64062;DHT22;50308;47.438;-1.528;2023-01-29T01:20:13;5.60;77.60
64062;DHT22;50308;47.438;-1.528;2023-01-29T01:22:38;5.60;77.30
64062;DHT22;50308;47.438;-1.528;2023-01-29T01:25:04;5.60;77.50
64062;DHT22;50308;47.438;-1.528;2023-01-29T01:27:30;5.60;77.10
64062;DHT22;50308;47.438;-1.528;2023-01-29T01:29:55;5.60;77.30
64062;DHT22;50308;47.438;-1.528;2023-01-29T01:32:21;5.60;77.40
64062;DHT22;50308;47.438;-1.528;2023-01-29T01:34:46;5.60;77.20
64062;DHT22;50308;47.438;-1.528;2023-01-29T01:37:12;5.60;77.30
64062;DHT22;50308;47.438;-1.528;2023-01-29T01:39:38;5.60;77.30
64062;DHT22;50308;47.438;-1.528;2023-01-29T01:42:04;5.60;77.30
64062;DHT22;50308;47.438;-1.528;2023-01-29T01:47:14;5.60;77.50
64062;DHT22;50308;47.438;-1.528;2023-01-29T01:49:41;5.70;77.20
64062;DHT22;50308;47.438;-1.528;2023-01-29T01:52:07;5.70;77.60
64062;DHT22;50308;47.438;-1.528;2023-01-29T01:54:32;5.70;77.60
64062;DHT22;50308;47.438;-1.528;2023-01-29T01:57:09;5.70;77.50
64062;DHT22;50308;47.438;-1.528;2023-01-29T01:59:41;5.60;77.60
64062;DHT22;50308;47.438;-1.528;2023-01-29T02:02:07;5.70;77.40
64062;DHT22;50308;47.438;-1.528;2023-01-29T02:04:51;5.70;77.60
64062;DHT22;50308;47.438;-1.528;2023-01-29T02:07:39;5.70;77.70
64062;DHT22;50308;47.438;-1.528;2023-01-29T02:10:23;5.80;77.80
64062;DHT22;50308;47.438;-1.528;2023-01-29T02:12:49;5.80;77.80
64062;DHT22;50308;47.438;-1.528;2023-01-29T02:15:15;5.70;77.80
64062;DHT22;50308;47.438;-1.528;2023-01-29T02:17:41;5.70;77.70
64062;DHT22;50308;47.438;-1.528;2023-01-29T02:27:26;5.90;77.90
64062;DHT22;50308;47.438;-1.528;2023-01-29T02:32:31;6.00;77.80
64062;DHT22;50308;47.438;-1.528;2023-01-29T02:37:45;5.90;77.70
64062;DHT22;50308;47.438;-1.528;2023-01-29T02:40:22;5.90;77.70
64062;DHT22;50308;47.438;-1.528;2023-01-29T02:42:51;5.90;77.90
64062;DHT22;50308;47.438;-1.528;2023-01-29T02:45:18;5.90;78.00
64062;DHT22;50308;47.438;-1.528;2023-01-29T02:47:57;5.90;78.00
64062;DHT22;50308;47.438;-1.528;2023-01-29T02:50:28;5.90;78.20
64062;DHT22;50308;47.438;-1.528;2023-01-29T02:53:09;6.00;78.10
64062;DHT22;50308;47.438;-1.528;2023-01-29T02:55:38;6.10;77.30
64062;DHT22;50308;47.438;-1.528;2023-01-29T03:01:25;6.30;76.70
64062;DHT22;50308;47.438;-1.528;2023-01-29T03:03:55;6.40;76.80
64062;DHT22;50308;47.438;-1.528;2023-01-29T03:06:46;6.50;76.50
64062;DHT22;50308;47.438;-1.528;2023-01-29T03:09:10;6.50;76.40
64062;DHT22;50308;47.438;-1.528;2023-01-29T03:11:43;6.40;77.00
64062;DHT22;50308;47.438;-1.528;2023-01-29T03:16:45;6.50;77.10
64062;DHT22;50308;47.438;-1.528;2023-01-29T03:19:23;6.40;77.00
64062;DHT22;50308;47.438;-1.528;2023-01-29T03:21:57;6.40;77.00
64062;DHT22;50308;47.438;-1.528;2023-01-29T03:24:41;6.50;76.80
64062;DHT22;50308;47.438;-1.528;2023-01-29T03:27:32;6.60;76.80
64062;DHT22;50308;47.438;-1.528;2023-01-29T03:30:17;6.50;77.00
64062;DHT22;50308;47.438;-1.528;2023-01-29T03:33:03;6.50;77.60
64062;DHT22;50308;47.438;-1.528;2023-01-29T03:35:30;6.50;76.90
64062;DHT22;50308;47.438;-1.528;2023-01-29T03:38:02;6.60;77.10
64062;DHT22;50308;47.438;-1.528;2023-01-29T03:40:28;6.70;78.20
64062;DHT22;50308;47.438;-1.528;2023-01-29T03:43:09;6.70;77.00
64062;DHT22;50308;47.438;-1.528;2023-01-29T03:45:46;6.60;77.30
64062;DHT22;50308;47.438;-1.528;2023-01-29T03:48:21;6.60;77.40
64062;DHT22;50308;47.438;-1.528;2023-01-29T03:50:53;6.60;77.30
64062;DHT22;50308;47.438;-1.528;2023-01-29T03:56:00;6.60;77.70
64062;DHT22;50308;47.438;-1.528;2023-01-29T04:01:02;6.60;77.40
64062;DHT22;50308;47.438;-1.528;2023-01-29T04:03:31;6.70;77.50
64062;DHT22;50308;47.438;-1.528;2023-01-29T04:08:35;6.70;77.50
64062;DHT22;50308;47.438;-1.528;2023-01-29T04:11:04;6.80;77.30
64062;DHT22;50308;47.438;-1.528;2023-01-29T04:13:31;6.80;76.50
64062;DHT22;50308;47.438;-1.528;2023-01-29T04:15:58;6.70;77.10
64062;DHT22;50308;47.438;-1.528;2023-01-29T04:18:24;6.60;77.40
64062;DHT22;50308;47.438;-1.528;2023-01-29T04:20:50;6.70;77.60
64062;DHT22;50308;47.438;-1.528;2023-01-29T04:23:20;6.70;77.70
64062;DHT22;50308;47.438;-1.528;2023-01-29T04:25:46;6.70;77.40
64062;DHT22;50308;47.438;-1.528;2023-01-29T04:28:18;6.60;77.70
64062;DHT22;50308;47.438;-1.528;2023-01-29T04:41:08;6.70;77.40
64062;DHT22;50308;47.438;-1.528;2023-01-29T04:46:21;6.70;77.80
64062;DHT22;50308;47.438;-1.528;2023-01-29T04:51:30;6.60;78.80
64062;DHT22;50308;47.438;-1.528;2023-01-29T04:54:02;6.70;78.00
64062;DHT22;50308;47.438;-1.528;2023-01-29T04:56:35;6.80;77.50
64062;DHT22;50308;47.438;-1.528;2023-01-29T04:59:05;6.70;77.20
64062;DHT22;50308;47.438;-1.528;2023-01-29T05:01:32;6.80;77.00
64062;DHT22;50308;47.438;-1.528;2023-01-29T05:03:59;7.10;77.40
64062;DHT22;50308;47.438;-1.528;2023-01-29T05:06:26;7.00;76.20
64062;DHT22;50308;47.438;-1.528;2023-01-29T05:08:53;6.90;76.70
64062;DHT22;50308;47.438;-1.528;2023-01-29T05:11:20;6.80;77.10
64062;DHT22;50308;47.438;-1.528;2023-01-29T05:13:46;6.80;77.00
64062;DHT22;50308;47.438;-1.528;2023-01-29T05:16:14;7.00;77.00
64062;DHT22;50308;47.438;-1.528;2023-01-29T05:18:41;6.90;76.70
64062;DHT22;50308;47.438;-1.528;2023-01-29T05:21:07;6.80;77.30
64062;DHT22;50308;47.438;-1.528;2023-01-29T05:23:33;6.70;77.60
64062;DHT22;50308;47.438;-1.528;2023-01-29T05:25:58;6.70;77.20
64062;DHT22;50308;47.438;-1.528;2023-01-29T05:28:24;6.80;77.10
64062;DHT22;50308;47.438;-1.528;2023-01-29T05:30:50;6.80;77.40
64062;DHT22;50308;47.438;-1.528;2023-01-29T05:33:23;6.80;77.40
64062;DHT22;50308;47.438;-1.528;2023-01-29T05:35:49;6.80;77.60
64062;DHT22;50308;47.438;-1.528;2023-01-29T05:38:16;6.70;77.50
64062;DHT22;50308;47.438;-1.528;2023-01-29T05:40:42;6.70;77.50
64062;DHT22;50308;47.438;-1.528;2023-01-29T05:43:25;6.80;77.60
64062;DHT22;50308;47.438;-1.528;2023-01-29T05:45:58;6.80;77.30
64062;DHT22;50308;47.438;-1.528;2023-01-29T05:48:24;6.90;77.10
64062;DHT22;50308;47.438;-1.528;2023-01-29T05:50:50;6.90;77.20
64062;DHT22;50308;47.438;-1.528;2023-01-29T05:53:16;6.90;77.40
64062;DHT22;50308;47.438;-1.528;2023-01-29T05:55:45;6.90;77.30
64062;DHT22;50308;47.438;-1.528;2023-01-29T05:58:11;6.80;77.70
64062;DHT22;50308;47.438;-1.528;2023-01-29T06:00:36;6.80;77.60
64062;DHT22;50308;47.438;-1.528;2023-01-29T06:03:02;6.80;77.70
64062;DHT22;50308;47.438;-1.528;2023-01-29T06:05:28;6.70;77.70
64062;DHT22;50308;47.438;-1.528;2023-01-29T06:10:19;6.80;77.80
64062;DHT22;50308;47.438;-1.528;2023-01-29T06:12:45;6.80;77.80
64062;DHT22;50308;47.438;-1.528;2023-01-29T06:15:11;6.80;77.90
64062;DHT22;50308;47.438;-1.528;2023-01-29T06:17:36;6.80;77.90
64062;DHT22;50308;47.438;-1.528;2023-01-29T06:20:02;6.80;78.00
64062;DHT22;50308;47.438;-1.528;2023-01-29T06:22:28;6.80;77.80
64062;DHT22;50308;47.438;-1.528;2023-01-29T06:24:53;6.80;78.00
64062;DHT22;50308;47.438;-1.528;2023-01-29T06:27:19;6.80;77.90
64062;DHT22;50308;47.438;-1.528;2023-01-29T06:29:44;6.80;78.00
64062;DHT22;50308;47.438;-1.528;2023-01-29T06:32:10;6.80;77.70
64062;DHT22;50308;47.438;-1.528;2023-01-29T06:34:36;6.70;77.90
64062;DHT22;50308;47.438;-1.528;2023-01-29T06:37:01;6.70;77.90
64062;DHT22;50308;47.438;-1.528;2023-01-29T06:39:27;6.80;77.90
64062;DHT22;50308;47.438;-1.528;2023-01-29T06:41:52;6.80;78.10
64062;DHT22;50308;47.438;-1.528;2023-01-29T06:44:18;6.70;77.90
64062;DHT22;50308;47.438;-1.528;2023-01-29T06:46:43;6.80;78.30
64062;DHT22;50308;47.438;-1.528;2023-01-29T06:49:09;6.80;78.20
64062;DHT22;50308;47.438;-1.528;2023-01-29T06:51:34;6.80;78.30
64062;DHT22;50308;47.438;-1.528;2023-01-29T06:54:00;6.80;78.00
64062;DHT22;50308;47.438;-1.528;2023-01-29T06:56:25;6.70;78.30
64062;DHT22;50308;47.438;-1.528;2023-01-29T06:58:51;6.80;78.10
64062;DHT22;50308;47.438;-1.528;2023-01-29T07:01:17;6.80;78.20
64062;DHT22;50308;47.438;-1.528;2023-01-29T07:03:42;6.70;78.30
64062;DHT22;50308;47.438;-1.528;2023-01-29T07:06:08;6.70;78.30
64062;DHT22;50308;47.438;-1.528;2023-01-29T07:08:37;6.80;78.00
64062;DHT22;50308;47.438;-1.528;2023-01-29T07:11:03;6.80;78.30
64062;DHT22;50308;47.438;-1.528;2023-01-29T07:13:28;6.80;78.30
64062;DHT22;50308;47.438;-1.528;2023-01-29T07:15:57;6.80;78.00
64062;DHT22;50308;47.438;-1.528;2023-01-29T07:18:24;6.80;77.70
64062;DHT22;50308;47.438;-1.528;2023-01-29T07:20:50;6.70;77.90
64062;DHT22;50308;47.438;-1.528;2023-01-29T07:23:15;6.70;78.20
64062;DHT22;50308;47.438;-1.528;2023-01-29T07:25:41;6.80;77.80
64062;DHT22;50308;47.438;-1.528;2023-01-29T07:28:07;6.80;77.90
64062;DHT22;50308;47.438;-1.528;2023-01-29T07:30:33;6.80;78.00
64062;DHT22;50308;47.438;-1.528;2023-01-29T07:33:02;6.80;77.90
64062;DHT22;50308;47.438;-1.528;2023-01-29T07:35:28;6.80;77.50
64062;DHT22;50308;47.438;-1.528;2023-01-29T07:37:53;6.80;77.90
64062;DHT22;50308;47.438;-1.528;2023-01-29T07:40:19;6.80;78.00
64062;DHT22;50308;47.438;-1.528;2023-01-29T07:42:45;6.80;77.80
64062;DHT22;50308;47.438;-1.528;2023-01-29T07:45:11;6.80;77.80
64062;DHT22;50308;47.438;-1.528;2023-01-29T07:47:36;6.80;78.10
64062;DHT22;50308;47.438;-1.528;2023-01-29T07:50:02;6.80;78.00
64062;DHT22;50308;47.438;-1.528;2023-01-29T07:52:28;6.80;77.90
64062;DHT22;50308;47.438;-1.528;2023-01-29T07:54:54;6.80;78.40
64062;DHT22;50308;47.438;-1.528;2023-01-29T07:57:20;6.80;77.90
64062;DHT22;50308;47.438;-1.528;2023-01-29T07:59:45;6.80;78.30
64062;DHT22;50308;47.438;-1.528;2023-01-29T08:02:11;6.80;77.90
64062;DHT22;50308;47.438;-1.528;2023-01-29T08:04:37;6.80;77.30
64062;DHT22;50308;47.438;-1.528;2023-01-29T08:07:02;6.90;77.90
64062;DHT22;50308;47.438;-1.528;2023-01-29T08:09:29;6.90;78.30
64062;DHT22;50308;47.438;-1.528;2023-01-29T08:11:55;6.90;78.20
64062;DHT22;50308;47.438;-1.528;2023-01-29T08:14:21;6.80;78.40
64062;DHT22;50308;47.438;-1.528;2023-01-29T08:16:47;6.90;78.30
64062;DHT22;50308;47.438;-1.528;2023-01-29T08:19:12;6.90;78.40
64062;DHT22;50308;47.438;-1.528;2023-01-29T08:21:38;6.90;78.00
64062;DHT22;50308;47.438;-1.528;2023-01-29T08:24:03;7.00;78.30
64062;DHT22;50308;47.438;-1.528;2023-01-29T08:26:29;6.90;78.30
64062;DHT22;50308;47.438;-1.528;2023-01-29T08:28:54;6.90;78.30
64062;DHT22;50308;47.438;-1.528;2023-01-29T08:31:20;6.90;78.00
64062;DHT22;50308;47.438;-1.528;2023-01-29T08:33:45;6.90;78.30
64062;DHT22;50308;47.438;-1.528;2023-01-29T08:36:11;6.90;78.10
64062;DHT22;50308;47.438;-1.528;2023-01-29T08:38:37;7.00;79.20
64062;DHT22;50308;47.438;-1.528;2023-01-29T08:43:28;7.00;78.30
64062;DHT22;50308;47.438;-1.528;2023-01-29T08:45:54;7.00;77.40
64062;DHT22;50308;47.438;-1.528;2023-01-29T08:48:19;7.10;77.40
64062;DHT22;50308;47.438;-1.528;2023-01-29T08:50:45;7.20;77.60
64062;DHT22;50308;47.438;-1.528;2023-01-29T08:53:10;7.20;77.90
64062;DHT22;50308;47.438;-1.528;2023-01-29T08:55:37;7.10;77.60
64062;DHT22;50308;47.438;-1.528;2023-01-29T08:58:03;7.30;77.40
64062;DHT22;50308;47.438;-1.528;2023-01-29T09:00:29;7.20;77.00
64062;DHT22;50308;47.438;-1.528;2023-01-29T09:02:55;7.20;77.10
64062;DHT22;50308;47.438;-1.528;2023-01-29T09:05:21;7.30;76.70
64062;DHT22;50308;47.438;-1.528;2023-01-29T09:07:46;7.30;76.90
64062;DHT22;50308;47.438;-1.528;2023-01-29T09:10:12;7.30;76.70
64062;DHT22;50308;47.438;-1.528;2023-01-29T09:12:37;7.30;76.50
64062;DHT22;50308;47.438;-1.528;2023-01-29T09:15:03;7.20;76.50
64062;DHT22;50308;47.438;-1.528;2023-01-29T09:17:28;7.30;77.00
64062;DHT22;50308;47.438;-1.528;2023-01-29T09:19:54;7.50;76.50
64062;DHT22;50308;47.438;-1.528;2023-01-29T09:22:20;7.50;76.20
64062;DHT22;50308;47.438;-1.528;2023-01-29T09:24:45;7.40;75.90
64062;DHT22;50308;47.438;-1.528;2023-01-29T09:27:11;7.50;76.30
64062;DHT22;50308;47.438;-1.528;2023-01-29T09:29:36;7.60;76.30
64062;DHT22;50308;47.438;-1.528;2023-01-29T09:32:05;7.60;74.60
64062;DHT22;50308;47.438;-1.528;2023-01-29T09:34:30;7.60;75.10
64062;DHT22;50308;47.438;-1.528;2023-01-29T09:36:56;7.60;76.10
64062;DHT22;50308;47.438;-1.528;2023-01-29T09:39:21;7.60;75.30
64062;DHT22;50308;47.438;-1.528;2023-01-29T09:46:45;7.60;75.20
64062;DHT22;50308;47.438;-1.528;2023-01-29T09:49:28;7.70;75.80
64062;DHT22;50308;47.438;-1.528;2023-01-29T09:52:06;7.70;75.50
64062;DHT22;50308;47.438;-1.528;2023-01-29T09:54:43;7.70;74.30
64062;DHT22;50308;47.438;-1.528;2023-01-29T09:57:10;7.60;74.30
64062;DHT22;50308;47.438;-1.528;2023-01-29T09:59:38;7.60;73.70
64062;DHT22;50308;47.438;-1.528;2023-01-29T10:14:40;7.80;73.70
64062;DHT22;50308;47.438;-1.528;2023-01-29T10:25:18;7.80;74.40
64062;DHT22;50308;47.438;-1.528;2023-01-29T10:27:46;7.90;74.50
64062;DHT22;50308;47.438;-1.528;2023-01-29T10:32:53;7.80;73.40
64062;DHT22;50308;47.438;-1.528;2023-01-29T10:35:21;7.80;73.00
64062;DHT22;50308;47.438;-1.528;2023-01-29T10:37:47;7.80;72.80
64062;DHT22;50308;47.438;-1.528;2023-01-29T10:42:59;7.80;72.60
64062;DHT22;50308;47.438;-1.528;2023-01-29T10:55:40;7.90;72.70
64062;DHT22;50308;47.438;-1.528;2023-01-29T10:58:32;7.90;73.20
64062;DHT22;50308;47.438;-1.528;2023-01-29T11:00:59;8.00;73.30
64062;DHT22;50308;47.438;-1.528;2023-01-29T11:03:25;8.00;73.10
64062;DHT22;50308;47.438;-1.528;2023-01-29T11:08:19;8.00;73.20
64062;DHT22;50308;47.438;-1.528;2023-01-29T11:10:49;8.00;72.30
64062;DHT22;50308;47.438;-1.528;2023-01-29T11:13:19;8.00;72.10
64062;DHT22;50308;47.438;-1.528;2023-01-29T11:15:48;8.00;73.20
64062;DHT22;50308;47.438;-1.528;2023-01-29T11:18:16;8.00;71.70
64062;DHT22;50308;47.438;-1.528;2023-01-29T11:20:42;8.00;71.60
64062;DHT22;50308;47.438;-1.528;2023-01-29T11:23:25;8.00;72.20
64062;DHT22;50308;47.438;-1.528;2023-01-29T11:25:52;8.10;72.80
64062;DHT22;50308;47.438;-1.528;2023-01-29T11:28:33;8.10;72.90
64062;DHT22;50308;47.438;-1.528;2023-01-29T11:30:59;8.10;72.20
64062;DHT22;50308;47.438;-1.528;2023-01-29T11:33:25;8.10;72.40
64062;DHT22;50308;47.438;-1.528;2023-01-29T11:35:51;8.10;72.50
64062;DHT22;50308;47.438;-1.528;2023-01-29T11:38:24;8.10;72.90
64062;DHT22;50308;47.438;-1.528;2023-01-29T11:40:50;8.20;73.60
64062;DHT22;50308;47.438;-1.528;2023-01-29T11:43:19;8.20;74.00
64062;DHT22;50308;47.438;-1.528;2023-01-29T11:45:46;8.20;73.60
64062;DHT22;50308;47.438;-1.528;2023-01-29T11:48:15;8.20;72.90
64062;DHT22;50308;47.438;-1.528;2023-01-29T11:50:42;8.20;72.20
64062;DHT22;50308;47.438;-1.528;2023-01-29T11:53:21;8.20;72.70
64062;DHT22;50308;47.438;-1.528;2023-01-29T11:55:48;8.30;74.00
64062;DHT22;50308;47.438;-1.528;2023-01-29T11:58:16;8.30;72.90
64062;DHT22;50308;47.438;-1.528;2023-01-29T12:00:45;8.30;73.30
64062;DHT22;50308;47.438;-1.528;2023-01-29T12:05:36;8.30;73.30
64062;DHT22;50308;47.438;-1.528;2023-01-29T12:08:03;8.30;72.20
64062;DHT22;50308;47.438;-1.528;2023-01-29T12:10:38;8.30;72.10
64062;DHT22;50308;47.438;-1.528;2023-01-29T12:15:46;8.30;72.00
64062;DHT22;50308;47.438;-1.528;2023-01-29T12:20:49;8.30;71.80
64062;DHT22;50308;47.438;-1.528;2023-01-29T12:25:55;8.30;71.50
64062;DHT22;50308;47.438;-1.528;2023-01-29T12:33:45;8.30;72.90
64062;DHT22;50308;47.438;-1.528;2023-01-29T12:36:16;8.40;73.40
64062;DHT22;50308;47.438;-1.528;2023-01-29T12:38:43;8.40;74.40
64062;DHT22;50308;47.438;-1.528;2023-01-29T12:43:40;8.40;73.60
64062;DHT22;50308;47.438;-1.528;2023-01-29T12:46:09;8.40;73.70
64062;DHT22;50308;47.438;-1.528;2023-01-29T12:48:37;8.40;73.50
64062;DHT22;50308;47.438;-1.528;2023-01-29T12:51:06;8.50;74.30
64062;DHT22;50308;47.438;-1.528;2023-01-29T12:56:50;8.50;74.10
64062;DHT22;50308;47.438;-1.528;2023-01-29T12:59:16;8.50;73.70
64062;DHT22;50308;47.438;-1.528;2023-01-29T13:02:05;8.50;73.20
64062;DHT22;50308;47.438;-1.528;2023-01-29T13:04:36;8.50;73.60
64062;DHT22;50308;47.438;-1.528;2023-01-29T13:07:14;8.50;73.80
64062;DHT22;50308;47.438;-1.528;2023-01-29T13:09:44;8.50;73.90
64062;DHT22;50308;47.438;-1.528;2023-01-29T13:12:16;8.50;72.70
64062;DHT22;50308;47.438;-1.528;2023-01-29T13:17:17;8.50;72.10
64062;DHT22;50308;47.438;-1.528;2023-01-29T13:19:45;8.50;73.70
64062;DHT22;50308;47.438;-1.528;2023-01-29T13:22:31;8.50;73.40
64062;DHT22;50308;47.438;-1.528;2023-01-29T13:24:57;8.60;74.30
64062;DHT22;50308;47.438;-1.528;2023-01-29T13:32:22;8.60;73.40
64062;DHT22;50308;47.438;-1.528;2023-01-29T13:34:49;8.60;73.50
64062;DHT22;50308;47.438;-1.528;2023-01-29T13:37:34;8.60;73.40
64062;DHT22;50308;47.438;-1.528;2023-01-29T13:40:01;8.60;73.30
64062;DHT22;50308;47.438;-1.528;2023-01-29T13:45:02;8.60;72.80
64062;DHT22;50308;47.438;-1.528;2023-01-29T13:47:30;8.60;73.60
64062;DHT22;50308;47.438;-1.528;2023-01-29T13:50:04;8.60;74.50
64062;DHT22;50308;47.438;-1.528;2023-01-29T13:52:38;8.60;74.20
64062;DHT22;50308;47.438;-1.528;2023-01-29T13:55:19;8.60;74.20
64062;DHT22;50308;47.438;-1.528;2023-01-29T14:02:46;8.60;74.20
64062;DHT22;50308;47.438;-1.528;2023-01-29T14:07:56;8.70;74.70
64062;DHT22;50308;47.438;-1.528;2023-01-29T14:10:24;8.60;74.40
64062;DHT22;50308;47.438;-1.528;2023-01-29T14:12:50;8.70;74.60
64062;DHT22;50308;47.438;-1.528;2023-01-29T14:20:34;8.70;74.60
64062;DHT22;50308;47.438;-1.528;2023-01-29T14:23:01;8.70;74.20
64062;DHT22;50308;47.438;-1.528;2023-01-29T14:25:29;8.70;74.60
64062;DHT22;50308;47.438;-1.528;2023-01-29T14:27:56;8.70;72.90
64062;DHT22;50308;47.438;-1.528;2023-01-29T14:30:22;8.60;73.80
64062;DHT22;50308;47.438;-1.528;2023-01-29T14:32:49;8.70;73.70
64062;DHT22;50308;47.438;-1.528;2023-01-29T14:35:18;8.60;73.00
64062;DHT22;50308;47.438;-1.528;2023-01-29T14:38:03;8.70;74.00
64062;DHT22;50308;47.438;-1.528;2023-01-29T14:40:30;8.60;73.80
64062;DHT22;50308;47.438;-1.528;2023-01-29T14:43:03;8.70;74.50
64062;DHT22;50308;47.438;-1.528;2023-01-29T14:45:37;8.70;73.80
64062;DHT22;50308;47.438;-1.528;2023-01-29T14:58:09;8.70;73.80
64062;DHT22;50308;47.438;-1.528;2023-01-29T15:00:37;8.70;74.00
64062;DHT22;50308;47.438;-1.528;2023-01-29T15:03:11;8.70;74.20
64062;DHT22;50308;47.438;-1.528;2023-01-29T15:05:37;8.70;74.00
64062;DHT22;50308;47.438;-1.528;2023-01-29T15:10:48;8.70;73.40
64062;DHT22;50308;47.438;-1.528;2023-01-29T15:13:36;8.70;74.20
64062;DHT22;50308;47.438;-1.528;2023-01-29T15:16:08;8.70;73.90
64062;DHT22;50308;47.438;-1.528;2023-01-29T15:18:39;8.70;73.10
64062;DHT22;50308;47.438;-1.528;2023-01-29T15:21:12;8.60;72.70
64062;DHT22;50308;47.438;-1.528;2023-01-29T15:23:38;8.60;74.30
64062;DHT22;50308;47.438;-1.528;2023-01-29T15:26:06;8.70;74.00
64062;DHT22;50308;47.438;-1.528;2023-01-29T15:28:33;8.60;73.70
64062;DHT22;50308;47.438;-1.528;2023-01-29T15:31:00;8.60;73.20
64062;DHT22;50308;47.438;-1.528;2023-01-29T15:33:25;8.60;73.40
64062;DHT22;50308;47.438;-1.528;2023-01-29T15:35:58;8.70;73.50
64062;DHT22;50308;47.438;-1.528;2023-01-29T15:38:24;8.70;74.40
64062;DHT22;50308;47.438;-1.528;2023-01-29T15:43:24;8.70;73.20
64062;DHT22;50308;47.438;-1.528;2023-01-29T15:45:50;8.70;73.90
64062;DHT22;50308;47.438;-1.528;2023-01-29T15:48:18;8.70;74.00
64062;DHT22;50308;47.438;-1.528;2023-01-29T15:50:44;8.70;74.10
64062;DHT22;50308;47.438;-1.528;2023-01-29T15:53:17;8.60;73.90
64062;DHT22;50308;47.438;-1.528;2023-01-29T15:55:43;8.60;72.90
64062;DHT22;50308;47.438;-1.528;2023-01-29T15:58:28;8.60;74.10
64062;DHT22;50308;47.438;-1.528;2023-01-29T16:00:55;8.60;74.10
64062;DHT22;50308;47.438;-1.528;2023-01-29T16:03:22;8.60;73.70
64062;DHT22;50308;47.438;-1.528;2023-01-29T16:05:49;8.60;73.70
64062;DHT22;50308;47.438;-1.528;2023-01-29T16:08:15;8.60;74.50
64062;DHT22;50308;47.438;-1.528;2023-01-29T16:10:41;8.60;73.50
64062;DHT22;50308;47.438;-1.528;2023-01-29T16:13:26;8.70;74.50
64062;DHT22;50308;47.438;-1.528;2023-01-29T16:16:15;8.60;73.80
64062;DHT22;50308;47.438;-1.528;2023-01-29T16:18:44;8.60;73.90
64062;DHT22;50308;47.438;-1.528;2023-01-29T16:21:31;8.70;74.60
64062;DHT22;50308;47.438;-1.528;2023-01-29T16:23:59;8.70;74.20
64062;DHT22;50308;47.438;-1.528;2023-01-29T16:26:27;8.70;74.00
64062;DHT22;50308;47.438;-1.528;2023-01-29T16:28:53;8.70;73.80
64062;DHT22;50308;47.438;-1.528;2023-01-29T16:31:20;8.60;74.20
64062;DHT22;50308;47.438;-1.528;2023-01-29T16:33:47;8.60;74.50
64062;DHT22;50308;47.438;-1.528;2023-01-29T16:38:52;8.60;74.80
64062;DHT22;50308;47.438;-1.528;2023-01-29T16:46:35;8.60;74.30
64062;DHT22;50308;47.438;-1.528;2023-01-29T16:49:01;8.70;74.90
64062;DHT22;50308;47.438;-1.528;2023-01-29T16:53:57;8.70;75.80
64062;DHT22;50308;47.438;-1.528;2023-01-29T16:56:22;8.70;74.90
64062;DHT22;50308;47.438;-1.528;2023-01-29T16:58:49;8.70;74.80
64062;DHT22;50308;47.438;-1.528;2023-01-29T17:01:15;8.70;74.90
64062;DHT22;50308;47.438;-1.528;2023-01-29T17:03:41;8.70;74.80
64062;DHT22;50308;47.438;-1.528;2023-01-29T17:06:07;8.60;74.70
64062;DHT22;50308;47.438;-1.528;2023-01-29T17:08:33;8.70;74.90
64062;DHT22;50308;47.438;-1.528;2023-01-29T17:10:59;8.70;74.40
64062;DHT22;50308;47.438;-1.528;2023-01-29T17:16:00;8.70;74.90
64062;DHT22;50308;47.438;-1.528;2023-01-29T17:18:27;8.70;74.90
64062;DHT22;50308;47.438;-1.528;2023-01-29T17:20:53;8.60;74.80
64062;DHT22;50308;47.438;-1.528;2023-01-29T17:23:19;8.70;74.90
64062;DHT22;50308;47.438;-1.528;2023-01-29T17:25:45;8.70;75.30
64062;DHT22;50308;47.438;-1.528;2023-01-29T17:28:11;8.70;75.30
64062;DHT22;50308;47.438;-1.528;2023-01-29T17:30:37;8.60;75.40
64062;DHT22;50308;47.438;-1.528;2023-01-29T17:33:37;8.60;75.20
64062;DHT22;50308;47.438;-1.528;2023-01-29T17:35:55;8.70;75.40
64062;DHT22;50308;47.438;-1.528;2023-01-29T17:38:21;8.60;75.40
64062;DHT22;50308;47.438;-1.528;2023-01-29T17:40:59;8.60;75.30
64062;DHT22;50308;47.438;-1.528;2023-01-29T17:43:26;8.70;74.90
64062;DHT22;50308;47.438;-1.528;2023-01-29T17:45:52;8.60;74.90
64062;DHT22;50308;47.438;-1.528;2023-01-29T17:48:24;8.70;74.90
64062;DHT22;50308;47.438;-1.528;2023-01-29T17:50:52;8.70;74.90
64062;DHT22;50308;47.438;-1.528;2023-01-29T17:53:19;8.60;75.30
64062;DHT22;50308;47.438;-1.528;2023-01-29T17:55:45;8.60;75.60
64062;DHT22;50308;47.438;-1.528;2023-01-29T17:58:18;8.60;74.90
64062;DHT22;50308;47.438;-1.528;2023-01-29T18:00:44;8.60;74.80
64062;DHT22;50308;47.438;-1.528;2023-01-29T18:03:09;8.60;74.80
64062;DHT22;50308;47.438;-1.528;2023-01-29T18:05:35;8.60;74.80
64062;DHT22;50308;47.438;-1.528;2023-01-29T18:08:00;8.60;75.20
64062;DHT22;50308;47.438;-1.528;2023-01-29T18:10:27;8.60;75.40
64062;DHT22;50308;47.438;-1.528;2023-01-29T18:12:53;8.60;75.50
64062;DHT22;50308;47.438;-1.528;2023-01-29T18:15:19;8.60;75.40
64062;DHT22;50308;47.438;-1.528;2023-01-29T18:17:44;8.60;75.50
64062;DHT22;50308;47.438;-1.528;2023-01-29T18:20:15;8.60;75.20
64062;DHT22;50308;47.438;-1.528;2023-01-29T18:22:40;8.60;74.80
64062;DHT22;50308;47.438;-1.528;2023-01-29T18:25:06;8.60;74.90